Flight Track Log - Related Links

Times and Time Zones

All times are in EDT time to prevent confusion due to time zone crossing. See the SWA189 flight status page for this flight to view local times or setup timezone preferences in your user account.

Time Position Orientation Groundspeed Altitude Reporting Facility
EDT Latitude Longitude Course Direction KTS MPH feet Rate Location/Type
Tue 10:56:08 PM 37.7167 -122.2500 322° Northwest 145 167 1,300  Level Northern Cal TRACON
Tue 10:57:08 PM 37.7667 -122.3000 322° Northwest 222 255 3,400 2,550 Climbing Northern Cal TRACON
Tue 10:58:08 PM 37.8167 -122.2500 38° Northeast 250 288 6,400 3,081 Climbing Northern Cal TRACON
Tue 11:00:13 PM 37.8608 -122.0486 74° East 324 373 12,900 3,065 Climbing Oakland Center
Tue 11:01:14 PM 37.8875 -121.9253 75° East 361 415 15,900 2,951 Climbing Oakland Center
Tue 11:02:15 PM 37.9150 -121.7925 75° East 386 444 18,900 3,148 Climbing Oakland Center
Tue 11:03:16 PM 37.9486 -121.6258 76° East 405 466 22,300 2,927 Climbing Oakland Center
Tue 11:04:18 PM 37.9786 -121.4803 75° East 423 487 24,900 2,293 Climbing Oakland Center
Tue 11:05:19 PM 38.0053 -121.3467 76° East 435 501 27,000 2,066 Climbing Oakland Center
Tue 11:06:20 PM 38.0367 -121.1917 76° East 452 520 29,100 2,115 Climbing Oakland Center
Tue 11:07:21 PM 38.0747 -121.0019 76° East 465 535 31,300 1,854 Climbing Oakland Center
Tue 11:08:23 PM 38.1139 -120.8389 73° East 483 556 32,900 1,756 Climbing Oakland Center
Tue 11:09:24 PM 38.1539 -120.6750 73° East 487 560 34,900 1,721 Climbing Oakland Center
Tue 11:10:25 PM 38.1925 -120.5128 73° East 485 558 36,400 1,475 Climbing Oakland Center
Tue 11:11:26 PM 38.2311 -120.3486 73° East 487 560 37,900 1,426 Climbing Oakland Center
Tue 11:12:27 PM 38.2692 -120.1856 73° East 484 557 39,300 1,220 Climbing Oakland Center
Tue 11:13:29 PM 38.3083 -120.0225 73° East 483 556 40,400 829 Climbing Oakland Center
Tue 11:14:30 PM 38.3453 -119.8581 74° East 487 560 41,000 295 Climbing Oakland Center
Tue 11:15:31 PM 38.3833 -119.6922 74° East 487 560 41,000  Level Oakland Center
Tue 11:16:32 PM 38.4217 -119.5031 75° East 482 555 41,000  Level Oakland Center
Tue 11:17:33 PM 38.4533 -119.3369 76° East 483 556 41,000  Level Oakland Center
Tue 11:18:34 PM 38.4856 -119.1725 76° East 482 555 41,000  Level Oakland Center
Tue 11:19:36 PM 38.5172 -119.0075 76° East 482 555 41,000  Level Oakland Center
Tue 11:20:37 PM 38.5483 -118.8475 76° East 470 541 41,000  Level Oakland Center
Tue 11:21:38 PM 38.5792 -118.6828 76° East 477 549 41,000  Level Oakland Center
Tue 11:22:39 PM 38.6164 -118.4850 76° East 479 551 41,000  Level Oakland Center
Tue 11:23:40 PM 38.6472 -118.3194 77° East 481 554 41,000  Level Oakland Center
Tue 11:24:41 PM 38.6781 -118.1553 76° East 477 549 41,000  Level Oakland Center
Tue 11:25:42 PM 38.7072 -117.9925 77° East 474 545 41,000  Level Oakland Center
Tue 11:26:44 PM 38.7369 -117.8292 77° East 473 544 41,000  Level Oakland Center
Tue 11:27:45 PM 38.7664 -117.6639 77° East 471 542 41,000  Level Oakland Center
Tue 11:28:26 PM 38.7828 -117.5647 78° East 474 545 41,000  Level Salt Lake Center
Tue 11:29:27 PM 38.8122 -117.3983 77° East 476 548 41,000  Level Salt Lake Center
Tue 11:30:28 PM 38.8478 -117.1972 77° East 479 551 41,000  Level Salt Lake Center
Tue 11:31:30 PM 38.8767 -117.0289 78° East 480 552 41,000  Level Salt Lake Center
Tue 11:32:31 PM 38.9053 -116.8611 78° East 480 552 41,000  Level Salt Lake Center
Tue 11:33:33 PM 38.9336 -116.6942 78° East 478 550 41,000  Level Salt Lake Center
Tue 11:34:34 PM 38.9611 -116.5297 78° East 472 543 41,000  Level Salt Lake Center
Tue 11:35:36 PM 38.9889 -116.3631 78° East 475 547 41,000  Level Salt Lake Center
Tue 11:36:37 PM 39.0161 -116.1969 78° East 475 547 41,000  Level Salt Lake Center
Tue 11:37:39 PM 39.0436 -116.0303 78° East 475 547 41,000  Level Salt Lake Center
Tue 11:38:40 PM 39.0703 -115.8647 78° East 474 545 41,000  Level Salt Lake Center
Tue 11:39:42 PM 39.0972 -115.6975 78° East 477 549 41,000  Level Salt Lake Center
Tue 11:40:43 PM 39.1286 -115.5006 78° East 468 539 41,000  Level Salt Lake Center
Tue 11:41:44 PM 39.1519 -115.3569 78° East 470 541 41,000  Level Salt Lake Center
Tue 11:42:46 PM 39.1808 -115.1711 79° East 473 544 41,000  Level Salt Lake Center
Tue 11:43:47 PM 39.2042 -115.0172 79° East 464 534 41,000  Level Salt Lake Center
Tue 11:44:49 PM 39.2319 -114.8333 79° East 467 537 41,000  Level Salt Lake Center
Tue 11:45:50 PM 39.2553 -114.6767 79° East 465 535 41,000  Level Salt Lake Center
Tue 11:46:52 PM 39.2792 -114.5206 79° East 465 535 41,000  Level Salt Lake Center
Tue 11:47:53 PM 39.3081 -114.3392 78° East 464 534 41,000  Level Salt Lake Center
Tue 11:48:54 PM 39.3319 -114.1742 79° East 466 536 41,000  Level Salt Lake Center
Tue 11:49:56 PM 39.3550 -114.0147 79° East 456 525 41,000  Level Salt Lake Center
Tue 11:50:57 PM 39.3789 -113.8506 79° East 462 532 41,000  Level Salt Lake Center
Tue 11:51:59 PM 39.4019 -113.6858 80° East 465 535 41,000  Level Salt Lake Center
Tue 11:53:00 PM 39.4258 -113.5203 79° East 467 537 41,000  Level Salt Lake Center
Tue 11:54:01 PM 39.4483 -113.3564 80° East 464 534 41,000  Level Salt Lake Center
Tue 11:55:03 PM 39.4747 -113.1583 80° East 466 536 41,000  Level Salt Lake Center
Tue 11:56:04 PM 39.4981 -112.9911 80° East 469 540 41,000  Level Salt Lake Center
Tue 11:57:05 PM 39.5206 -112.8217 80° East 473 544 41,000  Level Salt Lake Center
Tue 11:58:06 PM 39.5428 -112.6550 80° East 476 548 41,000  Level Salt Lake Center
Tue 11:59:08 PM 39.5647 -112.4892 80° East 472 543 41,000  Level Salt Lake Center
Wed 12:00:09 AM 39.5869 -112.3233 80° East 470 541 41,000  Level Salt Lake Center
Wed 12:01:10 AM 39.6081 -112.1564 81° East 471 542 41,000  Level Salt Lake Center
Wed 12:02:11 AM 39.6292 -111.9911 81° East 469 540 41,000  Level Salt Lake Center
Wed 12:03:13 AM 39.6525 -111.7939 81° East 465 535 41,000  Level Salt Lake Center
Wed 12:04:14 AM 39.6731 -111.6297 81° East 464 534 41,000  Level Salt Lake Center
Wed 12:05:15 AM 39.6925 -111.4667 81° East 460 529 41,000  Level Salt Lake Center
Wed 12:06:16 AM 39.7128 -111.3036 81° East 461 531 41,000  Level Salt Lake Center
Wed 12:07:17 AM 39.7342 -111.1411 80° East 455 524 41,000  Level Salt Lake Center
Wed 12:08:19 AM 39.7517 -110.9856 82° East 456 525 41,000  Level Salt Lake Center
Wed 12:09:20 AM 39.7733 -110.8028 81° East 457 526 41,000  Level Salt Lake Center
Wed 12:10:21 AM 39.7906 -110.6450 82° East 459 528 41,000  Level Salt Lake Center
Wed 12:11:22 AM 39.8114 -110.4597 82° East 462 532 41,000  Level Salt Lake Center
Wed 12:12:24 AM 39.8289 -110.3033 82° East 459 528 41,000  Level Salt Lake Center
Wed 12:13:25 AM 39.8464 -110.1464 82° East 459 528 41,000  Level Salt Lake Center
Wed 12:14:26 AM 39.8669 -109.9639 82° East 457 526 41,000  Level Salt Lake Center
Wed 12:15:27 AM 39.8825 -109.8094 82° East 451 519 41,000  Level Salt Lake Center
Wed 12:16:28 AM 39.8994 -109.6544 82° East 451 519 41,000  Level Salt Lake Center
Wed 12:17:29 AM 39.9181 -109.4753 82° East 447 514 41,000  Level Salt Lake Center
Wed 12:18:24 AM 39.9314 -109.3433 82° East 453 521 41,000  Level Denver Center
Wed 12:19:26 AM 39.9500 -109.1636 82° East 449 517 41,000  Level Denver Center
Wed 12:20:33 AM 39.9692 -108.9844 82° East 448 516 41,000  Level Salt Lake Center
Wed 12:21:28 AM 39.9808 -108.8542 83° East 446 513 41,000  Level Denver Center
Wed 12:22:29 AM 39.9983 -108.6739 83° East 445 512 41,000  Level Denver Center
Wed 12:23:31 AM 40.0131 -108.5186 83° East 447 514 41,000  Level Denver Center
Wed 12:24:32 AM 40.0294 -108.3406 83° East 443 510 41,000  Level Denver Center
Wed 12:25:33 AM 40.0436 -108.1861 83° East 446 513 41,000  Level Denver Center
Wed 12:26:34 AM 40.0619 -108.0328 81° East 445 512 41,000  Level Denver Center
Wed 12:27:36 AM 40.0850 -107.8558 80° East 442 509 41,000  Level Denver Center
Wed 12:28:37 AM 40.1036 -107.7036 81° East 442 509 41,000  Level Denver Center
Wed 12:29:38 AM 40.1217 -107.5525 81° East 440 506 41,000  Level Denver Center
Wed 12:30:39 AM 40.1433 -107.3753 81° East 442 509 41,000 -439 Level Denver Center
Wed 12:31:41 AM 40.1611 -107.2242 81° East 440 506 40,100 -878 Descending Denver Center
Wed 12:32:42 AM 40.1789 -107.0714 81° East 445 512 39,200 -934 Descending Denver Center
Wed 12:33:43 AM 40.1989 -106.8931 82° East 444 511 38,200 -984 Descending Denver Center
Wed 12:34:44 AM 40.2192 -106.7244 81° East 449 517 37,200 -984 Descending Denver Center
Wed 12:35:45 AM 40.2364 -106.5650 82° East 443 510 36,200 -1,820 Descending Denver Center
Wed 12:36:46 AM 40.2531 -106.4089 82° East 442 509 33,500 -2,732 Descending Denver Center
Wed 12:37:48 AM 40.2711 -106.2547 81° East 447 514 30,600 -2,902 Descending Denver Center
Wed 12:38:48 AM 40.2892 -106.0925 82° East 442 509 27,600 -2,262 Descending Denver Center
Wed 12:39:50 AM 40.3050 -105.9375 82° East 432 497 26,000 -976 Descending Denver Center
Wed 12:40:51 AM 40.3197 -105.8078 81° East 364 419 25,600 -984 Descending Denver Center
Wed 12:41:52 AM 40.3325 -105.6725 83° East 371 427 24,000 -1,820 Descending Denver Center
Wed 12:42:53 AM 40.3467 -105.5300 83° East 390 449 21,900 -1,967 Descending Denver Center
Wed 12:43:54 AM 40.3467 -105.3667 90° East 375 432 20,000 -934 Descending Denver Center
Wed 12:44:55 AM 40.3306 -105.2436 100° East 346 398 20,000 -1,623 Level Denver Center
Wed 12:45:56 AM 40.3133 -105.1242 101° East 337 388 16,700 -3,443 Descending Denver Center
Wed 12:46:57 AM 40.2972 -104.9864 99° East 368 423 13,000 -2,754 Descending Denver Center
Wed 12:47:58 AM 40.2528 -104.8750 118° Southeast 348 400 11,100 -1,033 Descending Denver Center
Wed 12:48:59 AM 40.1794 -104.7983 141° Southeast 314 361 10,900 -689 Descending Denver Center
Wed 12:50:00 AM 40.1150 -104.7317 142° Southeast 298 343 9,700 -1,220 Descending Denver Center
Wed 12:51:02 AM 40.0597 -104.6828 146° Southeast 254 292 8,400 -1,171 Descending Denver Center
Wed 12:52:03 AM 40.0036 -104.6856 182° South 204 235 7,300 -885 Descending Denver Center
Wed 12:53:04 AM 39.9656 -104.6864 181° South 140 161 6,600 -639 Descending Denver Center
Wed 12:54:05 AM 39.9314 -104.6864 180° South 116 133 6,000 -590 Descending Denver Center
Wed 12:55:06 AM 39.8967 -104.6869 181° South 123 142 5,400 -590 Descending Denver Center
Wed 12:57:00 AM 39.8617 -104.6732 North  Level Estimated
Wed 01:04:00 AM 39.8617 -104.6732 North  Level Estimated
Wed 01:05:00 AM 39.8617 -104.6732 North  Level Estimated

Login

Don't have an account? Register now (free) for customized features, flight alerts, and more!